EmailTwitter


Surface observations / United Kingdom / EGUB (03658)

Regions: Quebec | Canada | USA | Europe | France | UK | Elsewhere
Station
Display
Info & Location for EGUB (03658) | Help decoding METAR

Weather Conditions observed on 2017/06/26 at 06:50 UTC at BENSON RAF, UK (EGUB)

Temperature: 15.0 Celsius.

Dewpoint: 7.0 Celsius.

Relative Humidity: 59%

Winds: Northeast at 9 km/h or 5 knots.

Mean Sea level Pressure: 101.50 kilopascals.

Coded METAR:

EGUB 260650Z 05005KT CAVOK 15/07 Q1015 BLU NOSIG=